Time;durP1;ratioP1;P1;durP2;ratioP2;P2;SDS_P1;SDS_P2;PMS_P1;PMS_P2;Temp;Humidity;BMP_temperature;BMP_pressure;BME280_temperature;BME280_humidity;BME280_pressure;Samples;Min_cycle;Max_cycle;Signal;HPM_P1;HPM_P2
2020/12/04 00:00:15;;;;;;;53.83;29.45;;;;;;;0.51;68.99;96403.16;1702798;84;21084;-80
2020/12/04 00:02:44;;;;;;;51.77;29.10;;;;;;;0.41;69.19;96400.73;1732198;82;21375;-79
2020/12/04 00:05:12;;;;;;;56.10;30.88;;;;;;;0.40;69.37;96405.08;1702929;84;21141;-80
2020/12/04 00:07:41;;;;;;;54.30;29.82;;;;;;;0.41;69.40;96404.16;1732311;82;21156;-81
2020/12/04 00:10:10;;;;;;;55.33;29.52;;;;;;;0.44;69.34;96402.69;1702934;83;21175;-79
2020/12/04 00:12:40;;;;;;;48.58;25.48;;;;;;;0.39;69.40;96409.06;1732179;82;21046;-79
2020/12/04 00:15:10;;;;;;;55.10;27.85;;;;;;;0.41;69.50;96404.16;1703004;84;21280;-82
2020/12/04 00:17:39;;;;;;;50.05;26.93;;;;;;;0.46;69.27;96406.48;1731814;82;21212;-80
2020/12/04 00:20:07;;;;;;;47.53;25.50;;;;;;;0.41;69.12;96402.86;1702644;84;21097;-81
2020/12/04 00:22:36;;;;;;;49.60;27.07;;;;;;;0.32;69.23;96405.18;1732244;82;21404;-79
2020/12/04 00:25:05;;;;;;;49.90;26.45;;;;;;;0.22;69.53;96399.23;1702917;84;21065;-79
2020/12/04 00:27:33;;;;;;;48.13;28.05;;;;;;;0.15;69.69;96397.94;1732479;82;22122;-79
2020/12/04 00:30:03;;;;;;;49.75;28.60;;;;;;;0.03;69.94;96399.12;1702900;84;21561;-80
2020/12/04 00:32:31;;;;;;;49.48;27.00;;;;;;;-0.04;70.36;96394.77;1732134;82;21133;-78
2020/12/04 00:35:00;;;;;;;52.95;28.90;;;;;;;-0.10;70.44;96389.94;1703170;83;21176;-81
2020/12/04 00:37:28;;;;;;;54.53;28.73;;;;;;;-0.19;70.75;96399.05;1735705;81;21252;-81
2020/12/04 00:39:57;;;;;;;57.00;29.50;;;;;;;-0.17;70.89;96397.23;1748860;80;21368;-78
2020/12/04 00:42:28;;;;;;;51.77;28.62;;;;;;;-0.12;70.98;96398.23;1777619;79;21089;-80
2020/12/04 00:44:57;;;;;;;60.55;31.48;;;;;;;-0.06;70.76;96396.59;1776170;80;21117;-80
2020/12/04 00:47:26;;;;;;;51.77;28.60;;;;;;;-0.03;70.74;96397.25;1745302;82;21089;-78
2020/12/04 00:49:54;;;;;;;52.80;28.57;;;;;;;0.05;70.61;96383.86;1817663;79;21054;-79
2020/12/04 00:52:23;;;;;;;48.98;27.45;;;;;;;0.08;70.32;96386.75;1748495;82;21590;-81
2020/12/04 00:54:52;;;;;;;52.60;28.15;;;;;;;0.08;70.39;96381.11;1752679;82;21141;-80
2020/12/04 00:57:21;;;;;;;51.70;27.48;;;;;;;0.13;70.36;96378.25;1745538;82;21172;-79
2020/12/04 00:59:50;;;;;;;48.90;26.85;;;;;;;0.16;70.15;96373.70;1776560;80;21157;-80
2020/12/04 01:02:19;;;;;;;48.55;27.58;;;;;;;0.12;70.05;96379.15;1746471;82;21061;-79
2020/12/04 01:04:47;;;;;;;49.63;27.87;;;;;;;0.03;70.23;96371.47;1816447;79;21365;-79
2020/12/04 01:07:16;;;;;;;50.85;29.20;;;;;;;-0.08;70.36;96372.09;1747014;82;21133;-78
2020/12/04 01:09:45;;;;;;;50.60;27.37;;;;;;;-0.15;70.71;96376.43;1753327;82;21045;-79
2020/12/04 01:12:14;;;;;;;49.63;27.15;;;;;;;-0.21;70.85;96374.20;1746415;82;21114;-80
2020/12/04 01:14:43;;;;;;;56.45;29.02;;;;;;;-0.25;71.04;96358.47;1816466;79;21195;-80
2020/12/04 01:17:12;;;;;;;47.25;27.17;;;;;;;-0.29;71.12;96352.66;1816542;79;21384;-80
2020/12/04 01:19:40;;;;;;;49.70;26.12;;;;;;;-0.29;71.52;96363.84;1816257;79;21633;-79
2020/12/04 01:22:09;;;;;;;47.50;27.42;;;;;;;-0.26;71.35;96355.05;1816330;79;21077;-80
2020/12/04 01:24:39;;;;;;;51.02;28.07;;;;;;;-0.29;71.40;96363.84;1816575;79;21662;-81
2020/12/04 01:27:08;;;;;;;55.08;28.75;;;;;;;-0.31;71.43;96356.60;1815638;79;21030;-80
2020/12/04 01:29:37;;;;;;;53.65;30.27;;;;;;;-0.26;71.38;96353.76;1815401;79;22106;-80
2020/12/04 01:32:05;;;;;;;50.98;27.90;;;;;;;-0.18;71.29;96350.25;1816019;79;21077;-79
2020/12/04 01:34:35;;;;;;;50.30;28.27;;;;;;;-0.15;71.05;96353.14;1816487;79;21121;-81
2020/12/04 01:37:04;;;;;;;49.63;26.90;;;;;;;-0.14;71.03;96353.51;1746722;82;21145;-79
2020/12/04 01:39:33;;;;;;;52.95;28.30;;;;;;;-0.10;71.07;96346.77;1747435;82;21114;-80
2020/12/04 01:42:02;;;;;;;53.48;27.32;;;;;;;-0.06;70.85;96350.86;1745168;82;21547;-80
2020/12/04 01:44:32;;;;;;;52.03;28.45;;;;;;;-0.04;70.75;96349.47;1731033;83;21176;-79
2020/12/04 01:47:01;;;;;;;53.08;29.82;;;;;;;-0.03;70.62;96359.72;1742346;82;21574;-81
2020/12/04 01:49:31;;;;;;;52.08;28.60;;;;;;;0.01;70.44;96353.92;1731110;83;21179;-81
2020/12/04 01:51:59;;;;;;;51.70;29.42;;;;;;;0.06;70.01;96343.27;1742238;82;21153;-81
2020/12/04 01:54:28;;;;;;;51.45;30.08;;;;;;;0.04;69.77;96343.37;1731088;83;21212;-81
2020/12/04 01:56:57;;;;;;;48.70;28.52;;;;;;;0.02;69.61;96355.58;1742162;82;21086;-81
2020/12/04 01:59:26;;;;;;;51.88;27.93;;;;;;;0.01;69.54;96355.22;1731104;83;21092;-80
2020/12/04 02:02:03;;;;;;;51.53;29.82;;;;;;;0.08;69.38;96342.73;1742386;82;21085;-81
2020/12/04 02:04:32;;;;;;;52.10;29.65;;;;;;;0.07;69.05;96338.02;1731060;83;21147;-81
2020/12/04 02:07:29;;;;;;;52.78;30.92;;;;;;;0.02;68.93;96341.80;1742246;82;21693;-80
2020/12/04 02:10:00;;;;;;;51.08;27.82;;;;;;;-0.06;68.88;96353.45;1731164;83;21083;-80
2020/12/04 02:12:32;;;;;;;49.48;28.07;;;;;;;-0.11;69.06;96352.05;1742317;82;21659;-80
2020/12/04 02:15:02;;;;;;;50.38;27.62;;;;;;;-0.15;68.95;96347.50;1731951;79;21061;-80
2020/12/04 02:17:32;;;;;;;51.63;28.73;;;;;;;-0.29;69.23;96344.89;1742780;82;21113;-80
2020/12/04 02:20:01;;;;;;;51.88;28.57;;;;;;;-0.33;69.48;96345.98;1731013;83;21379;-80
2020/12/04 02:22:38;;;;;;;55.23;31.15;;;;;;;-0.34;69.58;96352.09;1742369;82;21217;-80
2020/12/04 02:25:09;;;;;;;49.08;27.27;;;;;;;-0.38;69.74;96355.30;1731701;83;21056;-80
2020/12/04 02:27:47;;;;;;;58.60;28.87;;;;;;;-0.40;69.95;96355.86;1746413;78;21078;-80
2020/12/04 02:30:26;;;;;;;48.40;27.67;;;;;;;-0.36;70.05;96348.73;1733703;83;21052;-79
2020/12/04 02:32:58;;;;;;;52.27;29.23;;;;;;;-0.32;70.00;96348.94;1742436;82;21206;-80
2020/12/04 02:35:26;;;;;;;52.30;30.37;;;;;;;-0.29;69.91;96338.42;1730857;83;21159;-80
2020/12/04 02:37:55;;;;;;;58.20;32.17;;;;;;;-0.28;69.65;96334.91;1742226;82;21087;-80
2020/12/04 02:40:24;;;;;;;52.33;30.17;;;;;;;-0.25;69.49;96339.06;1745028;82;21530;-81
2020/12/04 02:42:56;;;;;;;54.18;31.37;;;;;;;-0.29;69.45;96338.42;1814396;79;21144;-79
2020/12/04 02:45:25;;;;;;;51.42;28.75;;;;;;;-0.36;69.35;96334.04;1814449;79;21187;-80
2020/12/04 02:47:54;;;;;;;52.85;29.27;;;;;;;-0.43;69.54;96350.01;1814474;79;21133;-79
2020/12/04 02:50:23;;;;;;;49.42;27.82;;;;;;;-0.54;69.74;96348.03;1814539;79;21137;-79
2020/12/04 02:52:53;;;;;;;46.05;24.72;;;;;;;-0.62;69.98;96335.55;1745116;82;21157;-80
2020/12/04 02:55:22;;;;;;;44.58;25.27;;;;;;;-0.72;70.29;96334.84;1752101;82;21106;-80
2020/12/04 02:57:51;;;;;;;48.65;27.67;;;;;;;-0.78;70.60;96333.91;1745086;82;21382;-80
2020/12/04 03:00:20;;;;;;;46.83;26.73;;;;;;;-0.86;70.76;96324.00;1814339;79;21171;-80
2020/12/04 03:02:49;;;;;;;44.67;26.45;;;;;;;-1.03;71.03;96324.93;1814473;79;21041;-80
2020/12/04 03:05:18;;;;;;;48.50;27.07;;;;;;;-1.13;71.29;96311.70;1814526;79;21069;-80
2020/12/04 03:07:47;;;;;;;48.10;27.20;;;;;;;-1.17;71.48;96315.83;1745172;82;21073;-80
2020/12/04 03:10:15;;;;;;;46.20;26.93;;;;;;;-1.22;71.60;96311.37;1751943;82;21215;-81
2020/12/04 03:12:44;;;;;;;49.27;26.20;;;;;;;-1.24;71.79;96322.25;1745043;82;21114;-80
2020/12/04 03:15:14;;;;;;;50.08;28.00;;;;;;;-1.21;71.86;96325.94;1814323;79;21136;-81
2020/12/04 03:17:43;;;;;;;45.83;24.95;;;;;;;-1.20;71.80;96321.98;1744948;82;21200;-80
2020/12/04 03:20:11;;;;;;;49.58;28.25;;;;;;;-1.18;71.81;96324.50;1751967;82;21581;-81
2020/12/04 03:22:40;;;;;;;51.05;27.42;;;;;;;-1.14;71.75;96322.10;1745017;82;21206;-79
2020/12/04 03:25:09;;;;;;;45.80;25.82;;;;;;;-1.15;71.74;96332.90;1775708;80;21149;-81
2020/12/04 03:27:38;;;;;;;46.33;24.75;;;;;;;-1.10;71.65;96318.44;1775752;80;21054;-81
2020/12/04 03:30:07;;;;;;;44.70;24.67;;;;;;;-1.09;71.50;96314.47;1775767;80;21213;-80
2020/12/04 03:32:35;;;;;;;46.80;26.48;;;;;;;-1.03;71.40;96313.77;1775840;80;21475;-79
2020/12/04 03:35:04;;;;;;;48.78;26.77;;;;;;;-1.00;71.23;96301.98;1744999;82;21356;-77
2020/12/04 03:37:33;;;;;;;45.67;27.00;;;;;;;-1.02;71.19;96290.88;1814291;78;21577;-80
2020/12/04 03:40:02;;;;;;;43.50;24.02;;;;;;;-1.08;71.27;96305.80;1817094;78;21134;-81
2020/12/04 03:42:30;;;;;;;46.28;25.72;;;;;;;-1.13;71.51;96298.79;1817998;79;21152;-81
2020/12/04 03:44:59;;;;;;;51.50;26.82;;;;;;;-1.12;71.60;96298.33;1738647;81;21553;-79
2020/12/04 03:47:28;;;;;;;47.23;26.55;;;;;;;-1.12;71.54;96292.70;1737627;82;21210;-79
2020/12/04 03:49:56;;;;;;;45.30;25.32;;;;;;;-1.14;71.50;96291.93;1769479;81;21090;-80
2020/12/04 03:52:25;;;;;;;46.20;24.55;;;;;;;-1.13;71.75;96291.03;1738783;82;21057;-80
2020/12/04 03:54:55;;;;;;;50.25;26.52;;;;;;;-1.09;71.65;96299.43;1768772;81;21160;-81
2020/12/04 03:57:23;;;;;;;47.48;25.08;;;;;;;-1.04;71.51;96296.14;1738646;82;21109;-79
2020/12/04 03:59:52;;;;;;;46.20;25.60;;;;;;;-1.01;71.30;96293.83;1768803;81;21135;-81
2020/12/04 04:02:21;;;;;;;46.68;24.45;;;;;;;-0.99;71.25;96305.77;1738667;82;21199;-81
2020/12/04 04:04:49;;;;;;;53.28;26.17;;;;;;;-0.97;71.16;96296.63;1768820;81;21092;-80
2020/12/04 04:07:18;;;;;;;48.02;25.12;;;;;;;-1.00;71.07;96301.52;1738739;82;21089;-80
2020/12/04 04:09:47;;;;;;;48.87;26.35;;;;;;;-1.03;71.15;96293.92;1768875;81;21478;-81
2020/12/04 04:12:15;;;;;;;44.38;24.57;;;;;;;-1.10;71.14;96283.56;1738695;82;21352;-81
2020/12/04 04:14:44;;;;;;;45.67;25.68;;;;;;;-1.14;71.53;96288.05;1770162;81;21148;-80
2020/12/04 04:17:13;;;;;;;45.67;25.40;;;;;;;-1.13;71.40;96285.01;1740762;82;21141;-80
2020/12/04 04:19:42;;;;;;;46.80;24.50;;;;;;;-1.16;71.30;96274.40;1769024;81;21139;-80
2020/12/04 04:22:10;;;;;;;48.98;27.02;;;;;;;-1.18;71.09;96278.00;1739851;82;21160;-80
2020/12/04 04:24:42;;;;;;;53.65;27.95;;;;;;;-1.23;71.14;96273.08;1768913;81;21362;-79
2020/12/04 04:27:11;;;;;;;47.88;26.45;;;;;;;-1.22;71.13;96282.95;1738594;82;21199;-81
2020/12/04 04:29:40;;;;;;;48.50;27.30;;;;;;;-1.22;71.10;96285.53;1768790;81;21149;-80
2020/12/04 04:32:09;;;;;;;39.73;23.02;;;;;;;-1.19;70.99;96293.09;1738773;82;21069;-80
2020/12/04 04:34:38;;;;;;;44.95;25.52;;;;;;;-1.18;70.65;96282.70;1769257;81;21049;-80
2020/12/04 04:37:07;;;;;;;45.83;26.30;;;;;;;-1.21;70.71;96285.44;1738612;82;21194;-80
2020/12/04 04:39:35;;;;;;;47.60;26.10;;;;;;;-1.18;70.56;96290.91;1764608;81;21096;-80
2020/12/04 04:42:04;;;;;;;42.17;24.90;;;;;;;-1.15;70.39;96288.14;1745810;82;21130;-80
2020/12/04 04:44:34;;;;;;;46.15;25.65;;;;;;;-1.17;70.09;96287.41;1776201;80;21106;-80
2020/12/04 04:47:12;;;;;;;47.35;27.20;;;;;;;-1.18;70.26;96291.75;1776083;80;21138;-82
2020/12/04 04:49:45;;;;;;;48.13;26.70;;;;;;;-1.17;70.23;96281.78;1814671;79;22483;-80
2020/12/04 04:52:14;;;;;;;46.43;25.83;;;;;;;-1.12;70.12;96285.41;1745592;82;21140;-81
2020/12/04 04:54:48;;;;;;;44.08;23.92;;;;;;;-1.10;70.20;96292.61;1752148;82;21128;-80
2020/12/04 04:57:23;;;;;;;43.85;23.67;;;;;;;-1.08;70.31;96292.88;1745367;82;21042;-81
2020/12/04 04:59:54;;;;;;;47.20;25.52;;;;;;;-1.06;70.54;96295.41;1814941;79;21108;-81
2020/12/04 05:02:24;;;;;;;44.55;24.12;;;;;;;-1.14;70.57;96293.68;1815049;79;21487;-80
2020/12/04 05:04:55;;;;;;;41.50;24.05;;;;;;;-1.18;70.87;96295.63;1775896;80;21245;-81
2020/12/04 05:07:29;;;;;;;47.40;27.07;;;;;;;-1.17;70.79;96292.11;1776118;80;21161;-81
2020/12/04 05:10:14;;;;;;;48.85;31.87;;;;;;;-1.16;70.76;96300.23;1814791;79;21053;-83
2020/12/04 05:13:01;;;;;;;49.30;26.12;;;;;;;-1.20;70.54;96298.73;1776216;80;21102;-80
2020/12/04 05:15:30;;;;;;;46.88;25.82;;;;;;;-1.30;70.54;96301.46;1775457;80;21224;-83
2020/12/04 05:18:16;;;;;;;45.85;25.75;;;;;;;-1.35;70.72;96303.45;1776371;80;21054;-80
2020/12/04 05:20:53;;;;;;;45.92;25.97;;;;;;;-1.33;70.68;96296.91;1815832;79;21058;-81
2020/12/04 05:23:23;;;;;;;44.75;25.50;;;;;;;-1.32;70.68;96305.86;1814684;79;21137;-81
2020/12/04 05:25:53;;;;;;;45.70;25.77;;;;;;;-1.27;70.44;96296.11;1814792;79;21129;-80
2020/12/04 05:28:25;;;;;;;47.98;26.42;;;;;;;-1.29;70.13;96291.50;1816479;79;21187;-80
2020/12/04 05:31:09;;;;;;;47.73;25.52;;;;;;;-1.33;70.25;96287.41;1815010;79;21101;-82
2020/12/04 05:33:40;;;;;;;45.80;23.87;;;;;;;-1.32;70.27;96283.08;1746376;82;21061;-82
2020/12/04 05:36:09;;;;;;;41.45;24.52;;;;;;;-1.28;70.20;96278.95;1753508;82;21042;-81
2020/12/04 05:41:32;;;;;;;66.35;33.45;;;;;;;-1.20;70.00;96278.06;1820516;77;28263;-81
2020/12/04 05:44:04;;;;;;;74.80;42.25;;;;;;;-1.23;69.79;96280.83;1730097;81;21049;-79
2020/12/04 05:46:33;;;;;;;49.05;28.80;;;;;;;-1.27;69.76;96289.66;1714216;81;22230;-82
2020/12/04 05:49:09;;;;;;;45.58;25.02;;;;;;;-1.24;69.78;96280.46;1757296;81;21046;-82
2020/12/04 05:51:39;;;;;;;56.85;30.70;;;;;;;-1.27;69.91;96282.36;1788512;79;21117;-85
2020/12/04 05:54:10;;;;;;;51.18;28.32;;;;;;;-1.33;70.00;96287.41;1767082;81;21109;-82
2020/12/04 05:56:40;;;;;;;63.30;35.08;;;;;;;-1.32;70.04;96276.62;1757648;81;21535;-82
2020/12/04 05:59:10;;;;;;;172.70;69.70;;;;;;;-1.26;69.95;96277.56;1767654;81;21367;-80
2020/12/04 06:01:46;;;;;;;276.37;102.85;;;;;;;-1.21;69.82;96278.98;1759626;79;20983;-83
2020/12/04 06:04:18;;;;;;;225.75;89.13;;;;;;;-1.18;69.86;96281.41;1769833;80;21148;-82
2020/12/04 06:06:49;;;;;;;136.68;64.82;;;;;;;-1.16;69.61;96276.98;1756962;81;21156;-85
2020/12/04 06:09:21;;;;;;;54.48;27.25;;;;;;;-1.16;69.63;96276.98;1766554;81;21494;-83
2020/12/04 06:11:51;;;;;;;63.63;30.30;;;;;;;-1.11;69.75;96279.31;1729083;81;22308;-81
2020/12/04 06:14:22;;;;;;;102.10;50.33;;;;;;;-1.03;70.01;96278.88;1765491;81;21089;-82
2020/12/04 06:17:10;;;;;;;104.50;49.03;;;;;;;-1.05;70.48;96271.69;1756079;81;21073;-83
2020/12/04 06:19:41;;;;;;;50.38;26.62;;;;;;;-1.10;70.86;96287.44;1765006;81;21620;-80
2020/12/04 06:22:15;;;;;;;51.30;28.25;;;;;;;-1.15;71.25;96276.06;1766335;81;21109;-81
2020/12/04 06:24:59;;;;;;;46.73;24.90;;;;;;;-1.19;71.75;96277.59;1756799;81;22296;-81
2020/12/04 06:27:48;;;;;;;44.42;24.10;;;;;;;-1.18;71.83;96277.53;1766167;81;21144;-83
2020/12/04 06:30:18;;;;;;;43.00;24.30;;;;;;;-1.14;71.81;96284.64;1756801;81;21820;-83
2020/12/04 06:32:48;;;;;;;43.95;22.02;;;;;;;-1.17;72.27;96287.41;1766319;81;21116;-83
2020/12/04 06:35:42;;;;;;;59.53;32.15;;;;;;;-1.06;72.42;96303.62;1757118;81;21125;-84
2020/12/04 06:38:41;;;;;;;48.65;27.13;;;;;;;-0.98;72.12;96300.13;1758771;81;21151;-83
2020/12/04 06:41:34;;;;;;;44.58;24.87;;;;;;;-0.89;72.19;96294.43;1733016;82;21191;-84
2020/12/04 06:44:09;;;;;;;42.60;24.02;;;;;;;-0.81;72.23;96291.80;1807336;79;21086;-83
2020/12/04 06:46:44;;;;;;;60.03;33.23;;;;;;;-0.74;72.15;96296.16;1816681;79;21610;-81
2020/12/04 06:52:16;;;;;;;50.40;26.85;;;;;;;-0.60;72.09;96303.95;1781183;80;21234;-83
2020/12/04 06:54:52;;;;;;;55.75;32.00;;;;;;;-0.52;71.82;96302.70;1782863;80;21546;-83
2020/12/04 06:57:22;;;;;;;54.67;30.20;;;;;;;-0.45;71.65;96319.06;1783682;79;21038;-84
2020/12/04 06:59:51;;;;;;;51.35;28.70;;;;;;;-0.38;71.47;96317.78;1785666;79;21061;-84
2020/12/04 07:02:24;;;;;;;45.50;26.45;;;;;;;-0.33;71.29;96323.53;1784887;79;21479;-84
2020/12/04 07:04:54;;;;;;;49.05;27.05;;;;;;;-0.30;71.00;96323.80;1798782;79;21343;-83
2020/12/04 07:07:25;;;;;;;51.50;29.00;;;;;;;-0.27;70.84;96313.29;1782652;80;21195;-83
2020/12/04 07:10:01;;;;;;;49.90;25.75;;;;;;;-0.21;70.80;96315.52;1784423;79;21196;-85
2020/12/04 07:12:35;;;;;;;44.05;24.43;;;;;;;-0.11;70.47;96300.29;1783941;80;21057;-86
2020/12/04 07:15:09;;;;;;;44.60;25.17;;;;;;;-0.05;70.42;96305.10;1753147;80;21545;-81
2020/12/04 07:17:38;;;;;;;45.65;25.60;;;;;;;-0.06;70.44;96309.45;1804933;79;21204;-83
2020/12/04 07:20:07;;;;;;;54.20;30.68;;;;;;;0.00;70.29;96308.26;1816119;79;21145;-85
2020/12/04 07:22:37;;;;;;;53.50;29.52;;;;;;;0.06;70.21;96311.77;1815738;79;21118;-84
2020/12/04 07:25:07;;;;;;;55.63;29.80;;;;;;;0.04;70.07;96311.47;1815168;79;21577;-85
2020/12/04 07:27:39;;;;;;;50.75;27.58;;;;;;;0.06;69.91;96307.89;1784396;79;21165;-84
2020/12/04 07:30:14;;;;;;;50.00;28.90;;;;;;;0.19;69.76;96315.75;1815088;79;21238;-85
2020/12/04 07:32:52;;;;;;;43.73;26.07;;;;;;;0.31;69.61;96315.00;1888881;76;28183;-86
2020/12/04 07:35:22;;;;;;;41.73;22.22;;;;;;;0.36;69.58;96316.03;1832987;77;21116;-83
2020/12/04 07:37:51;;;;;;;42.45;24.12;;;;;;;0.47;69.48;96317.47;1837662;77;21431;-83
2020/12/04 07:40:20;;;;;;;44.35;23.75;;;;;;;0.52;69.42;96304.61;1819225;77;21041;-83
2020/12/04 07:42:49;;;;;;;42.30;24.47;;;;;;;0.61;69.18;96293.33;1820293;77;21148;-82
2020/12/04 07:45:19;;;;;;;42.25;23.38;;;;;;;0.64;69.04;96298.30;1818313;77;21057;-83
2020/12/04 07:47:48;;;;;;;44.88;23.75;;;;;;;0.67;69.41;96298.13;1816580;78;21037;-86
2020/12/04 07:50:16;;;;;;;44.83;23.70;;;;;;;0.63;69.19;96302.66;1818252;79;21349;-82
2020/12/04 07:52:51;;;;;;;40.88;22.70;;;;;;;0.59;69.23;96302.94;1820232;77;21183;-83
2020/12/04 07:55:21;;;;;;;48.08;25.25;;;;;;;0.60;69.25;96304.16;1822430;77;21192;-84
2020/12/04 07:58:12;;;;;;;42.35;24.07;;;;;;;0.58;69.49;96302.11;1816010;79;21480;-81
2020/12/04 08:00:43;;;;;;;42.58;24.77;;;;;;;0.60;69.67;96298.98;1816615;79;21162;-84
2020/12/04 08:03:14;;;;;;;40.30;24.10;;;;;;;0.53;70.10;96285.58;1816484;79;21194;-84
2020/12/04 08:05:43;;;;;;;41.30;21.97;;;;;;;0.57;69.90;96287.95;1819449;78;21125;-83
2020/12/04 08:08:19;;;;;;;43.50;23.90;;;;;;;0.61;70.01;96279.08;1816795;77;21177;-82
2020/12/04 08:10:48;;;;;;;38.58;20.72;;;;;;;0.61;69.62;96283.80;1827198;77;21177;-79
2020/12/04 08:13:17;;;;;;;42.48;23.67;;;;;;;0.59;69.90;96288.22;1822179;78;21491;-82
2020/12/04 08:15:46;;;;;;;37.42;21.02;;;;;;;0.58;69.84;96286.56;1823286;77;21106;-83
2020/12/04 08:18:15;;;;;;;43.35;23.92;;;;;;;0.59;70.05;96284.33;1840050;77;21152;-83
2020/12/04 08:20:46;;;;;;;40.85;22.17;;;;;;;0.65;69.83;96281.39;1745918;79;21147;-82
2020/12/04 08:23:22;;;;;;;43.90;25.23;;;;;;;0.71;69.75;96280.14;1818403;78;21131;-83
2020/12/04 08:25:54;;;;;;;34.15;20.60;;;;;;;0.71;69.47;96284.03;1816371;78;21126;-83
2020/12/04 08:28:23;;;;;;;40.50;22.80;;;;;;;0.66;69.65;96286.94;1815822;78;21199;-80
2020/12/04 08:30:51;;;;;;;40.45;22.80;;;;;;;0.68;69.69;96280.35;1817175;77;21140;-81
2020/12/04 08:33:20;;;;;;;37.33;19.90;;;;;;;0.76;69.54;96272.91;1821951;78;21042;-82
2020/12/04 08:35:49;;;;;;;41.23;21.75;;;;;;;0.84;68.67;96265.51;1820996;78;21152;-85
2020/12/04 08:38:23;;;;;;;36.15;21.07;;;;;;;0.77;68.90;96268.95;1821889;77;21053;-83
2020/12/04 08:40:55;;;;;;;40.73;21.60;;;;;;;0.85;68.98;96261.16;1821922;78;21258;-85
2020/12/04 08:43:24;;;;;;;49.08;29.37;;;;;;;0.93;68.50;96253.70;1828488;77;21128;-83
2020/12/04 08:45:57;;;;;;;47.90;26.90;;;;;;;0.90;68.45;96267.71;1828129;77;21137;-85
2020/12/04 08:48:32;;;;;;;40.38;22.95;;;;;;;0.82;68.84;96260.86;1842032;77;21100;-84
2020/12/04 08:51:03;;;;;;;40.70;22.55;;;;;;;0.73;69.45;96264.06;1849119;77;21097;-81
2020/12/04 08:53:36;;;;;;;40.00;22.42;;;;;;;0.64;70.14;96265.45;1797744;77;21412;-85
2020/12/04 08:56:05;;;;;;;38.90;21.35;;;;;;;0.63;70.48;96270.27;1803553;79;21554;-81
2020/12/04 08:58:38;;;;;;;37.85;19.75;;;;;;;0.62;70.65;96266.48;1723400;80;21125;-84
2020/12/04 09:01:08;;;;;;;39.95;21.48;;;;;;;0.63;70.67;96259.91;1771843;80;21200;-82
2020/12/04 09:03:46;;;;;;;41.00;22.30;;;;;;;0.70;70.81;96256.46;1765981;79;21148;-80
2020/12/04 09:06:17;;;;;;;40.50;22.17;;;;;;;0.78;70.66;96251.17;1812088;79;21192;-81
2020/12/04 09:08:48;;;;;;;44.93;22.07;;;;;;;0.91;70.61;96254.28;1796153;78;21145;-82
2020/12/04 09:11:18;;;;;;;46.23;24.27;;;;;;;1.11;70.48;96250.39;1801942;79;21502;-83
2020/12/04 09:13:47;;;;;;;44.55;25.30;;;;;;;1.30;70.24;96256.04;1785974;79;21094;-84
2020/12/04 09:16:17;;;;;;;43.85;25.35;;;;;;;1.46;69.58;96247.62;1788832;80;21163;-84
2020/12/04 09:18:46;;;;;;;38.42;19.77;;;;;;;1.56;68.89;96254.34;1789241;79;22391;-83
2020/12/04 09:21:15;;;;;;;40.45;21.35;;;;;;;1.57;68.05;96261.19;1789235;80;21152;-82
2020/12/04 09:23:44;;;;;;;38.40;23.07;;;;;;;1.48;68.23;96259.19;1789211;80;21839;-83
2020/12/04 09:26:13;;;;;;;37.33;21.35;;;;;;;1.47;68.45;96253.17;1804723;79;21637;-83
2020/12/04 09:28:42;;;;;;;39.45;21.68;;;;;;;1.46;68.27;96250.22;1815855;79;21371;-84
2020/12/04 09:31:11;;;;;;;38.95;23.07;;;;;;;1.47;68.47;96257.06;1815469;79;21364;-82
2020/12/04 09:33:39;;;;;;;44.58;24.10;;;;;;;1.49;68.47;96256.98;1815753;79;21069;-81
2020/12/04 09:36:08;;;;;;;37.73;21.12;;;;;;;1.57;68.34;96242.55;1815528;79;21101;-86
2020/12/04 09:38:37;;;;;;;41.80;23.70;;;;;;;1.61;68.50;96249.68;1816978;79;21458;-84
2020/12/04 09:41:07;;;;;;;42.23;22.02;;;;;;;1.62;68.71;96232.34;1816966;79;21231;-84
2020/12/04 09:43:37;;;;;;;37.33;21.93;;;;;;;1.60;68.45;96235.02;1819505;78;21362;-84
2020/12/04 09:46:08;;;;;;;44.13;22.62;;;;;;;1.57;68.46;96233.47;1816703;79;21104;-85
2020/12/04 09:48:38;;;;;;;39.03;20.97;;;;;;;1.60;68.24;96231.98;1813016;79;21156;-86
2020/12/04 09:51:07;;;;;;;37.85;22.10;;;;;;;1.56;68.24;96224.50;1794451;78;22135;-83
2020/12/04 09:53:35;;;;;;;41.25;23.73;;;;;;;1.63;68.30;96232.70;1811811;79;21601;-84
2020/12/04 09:56:04;;;;;;;41.95;22.48;;;;;;;1.72;68.14;96228.17;1787212;79;21230;-84
2020/12/04 09:58:35;;;;;;;39.78;22.48;;;;;;;1.84;68.15;96228.20;1784117;79;21207;-84
2020/12/04 10:01:04;;;;;;;39.30;23.25;;;;;;;1.94;67.62;96233.58;1788618;79;21200;-83
2020/12/04 10:03:34;;;;;;;38.92;21.87;;;;;;;2.03;67.40;96221.27;1790767;79;21124;-83
2020/12/04 10:06:03;;;;;;;37.75;21.82;;;;;;;2.13;67.24;96229.23;1780460;80;21274;-84
2020/12/04 10:08:32;;;;;;;40.88;22.42;;;;;;;2.25;66.87;96218.47;1793677;79;21106;-84
2020/12/04 10:11:02;;;;;;;40.28;22.65;;;;;;;2.36;66.38;96218.55;1788299;80;21140;-85
2020/12/04 10:13:31;;;;;;;39.33;23.55;;;;;;;2.48;66.24;96217.69;1788904;80;21128;-85
2020/12/04 10:16:05;;;;;;;40.40;22.13;;;;;;;2.66;65.86;96207.75;1790398;80;21069;-84
2020/12/04 10:18:35;;;;;;;43.08;24.65;;;;;;;2.81;65.31;96217.06;1789996;80;21141;-84
2020/12/04 10:21:08;;;;;;;39.63;24.27;;;;;;;2.90;64.96;96217.68;1789174;80;22469;-85
2020/12/04 10:23:37;;;;;;;41.37;23.38;;;;;;;2.98;64.72;96213.72;1789198;80;21535;-85
2020/12/04 10:26:06;;;;;;;46.53;26.75;;;;;;;3.08;64.33;96223.79;1787236;79;21176;-85
2020/12/04 10:28:35;;;;;;;42.78;23.98;;;;;;;3.18;64.09;96220.88;1783373;80;21608;-84
2020/12/04 10:31:04;;;;;;;44.35;27.25;;;;;;;3.28;63.69;96221.05;1783832;80;21885;-82
2020/12/04 10:33:34;;;;;;;40.33;23.45;;;;;;;3.36;63.42;96215.62;1786226;80;21199;-82
2020/12/04 10:36:08;;;;;;;40.00;23.83;;;;;;;3.45;63.36;96215.42;1763903;78;21116;-82
2020/12/04 10:38:39;;;;;;;44.42;23.07;;;;;;;3.53;62.93;96210.46;1786709;80;21104;-85
2020/12/04 10:41:09;;;;;;;37.70;22.55;;;;;;;3.56;62.61;96206.34;1785955;80;21022;-84
2020/12/04 10:43:38;;;;;;;42.90;22.65;;;;;;;3.54;62.50;96208.21;1786895;80;21057;-83
2020/12/04 10:46:07;;;;;;;37.45;20.97;;;;;;;3.54;62.56;96206.08;1786741;80;21193;-84
2020/12/04 10:48:40;;;;;;;42.58;22.82;;;;;;;3.51;62.54;96203.73;1789128;80;21085;-83
2020/12/04 10:51:12;;;;;;;39.65;23.07;;;;;;;3.47;62.22;96205.72;1789037;79;21100;-86
2020/12/04 10:53:42;;;;;;;37.63;22.67;;;;;;;3.42;62.57;96198.72;1800226;78;21171;-86
2020/12/04 10:56:11;;;;;;;37.45;21.77;;;;;;;3.46;62.59;96209.27;1786826;78;21493;-84
2020/12/04 10:58:42;;;;;;;41.23;23.62;;;;;;;3.48;62.48;96207.37;1789859;79;21364;-85
2020/12/04 11:01:13;;;;;;;39.55;22.70;;;;;;;3.50;62.49;96204.20;1749795;80;21656;-84
2020/12/04 11:06:23;;;;;;;38.42;22.42;;;;;;;3.59;62.99;96202.19;1843675;75;28609;-86
2020/12/04 11:09:05;;;;;;;49.80;25.75;;;;;;;3.55;62.65;96204.66;1788690;80;21049;-84
2020/12/04 11:11:58;;;;;;;38.05;22.58;;;;;;;3.56;62.65;96187.27;1786701;80;21160;-86
2020/12/04 11:14:27;;;;;;;41.48;24.43;;;;;;;3.58;62.47;96197.11;1787271;80;21132;-84
2020/12/04 11:16:56;;;;;;;49.77;32.65;;;;;;;3.62;62.27;96192.86;1789953;79;21145;-83
2020/12/04 11:19:25;;;;;;;38.10;21.97;;;;;;;3.63;62.21;96191.09;1807038;79;21109;-87
2020/12/04 11:21:54;;;;;;;43.85;24.07;;;;;;;3.61;62.22;96196.39;1818697;79;21097;-84
2020/12/04 11:24:45;;;;;;;39.27;23.57;;;;;;;3.64;62.18;96187.53;1818506;79;21336;-85
2020/12/04 11:27:25;;;;;;;44.05;24.37;;;;;;;3.70;62.22;96182.69;1802464;78;28208;-85
2020/12/04 11:29:56;;;;;;;64.50;35.63;;;;;;;3.71;62.15;96185.64;1760347;78;21156;-85
2020/12/04 11:32:25;;;;;;;72.17;33.92;;;;;;;3.77;62.19;96196.54;1760228;79;21082;-84
2020/12/04 11:34:53;;;;;;;46.10;25.02;;;;;;;3.85;61.99;96190.27;1763480;80;21550;-82
2020/12/04 11:37:22;;;;;;;44.05;25.30;;;;;;;3.89;61.71;96200.81;1732683;81;21506;-87
2020/12/04 11:39:57;;;;;;;51.25;27.13;;;;;;;3.85;61.85;96186.36;1739196;81;21243;-85
2020/12/04 11:42:29;;;;;;;41.37;23.60;;;;;;;3.88;61.78;96193.95;1756694;81;21149;-83
2020/12/04 11:44:59;;;;;;;44.00;27.60;;;;;;;3.92;61.78;96194.08;1755888;81;21376;-85
2020/12/04 11:47:28;;;;;;;45.83;26.65;;;;;;;3.97;61.66;96186.72;1755086;81;21172;-84